Cranberry Portage, Canada
Current Conditions -  °F | °C
As of 3:00 AM on Friday 19 Dec 2014 (Local Time) from CYQD Reporting Station
Overcast Overcast  
Wind Chill:   Ceiling: 1200
Heat Index: 16°   Visibility: 15mi
Dew Point: 14°   Wind: 6mph
Humidity: 93%   Direction: 130°SE
Pressure: 29.97"   Gusts: NA
Location:  54.59°N, 101.38°W
Report Text: CYQD 190900Z 13005KT 15SM OVC012 M09/M10 A2997 RMK SC8 SLP170
Loading
Personal Weather Stations






























Interactive Weather Map New forecast layout! Learn more

10-Day Weather Forecast

Advertisements
Track Severe Weather on mobile